createdAt,value
2022-08-18T00:06:04.159Z,47.1
2022-08-18T00:11:23.263Z,47.1
2022-08-18T00:16:55.441Z,47.1
2022-08-18T00:22:54.243Z,47.1
2022-08-18T00:28:35.080Z,47
2022-08-18T00:34:17.212Z,47
2022-08-18T00:40:07.702Z,47
2022-08-18T00:45:53.324Z,46.9
2022-08-18T00:51:59.089Z,46.9
2022-08-18T00:57:49.957Z,46.9
2022-08-18T01:03:27.654Z,46.9
2022-08-18T01:09:06.029Z,46.9
2022-08-18T01:15:28.582Z,46.8
2022-08-18T01:21:09.876Z,46.8
2022-08-18T01:26:48.305Z,46.8
2022-08-18T01:32:27.762Z,46.8
2022-08-18T01:38:14.875Z,46.7
2022-08-18T01:45:58.198Z,46.7
2022-08-18T01:51:56.945Z,46.7
2022-08-18T01:57:18.725Z,46.6
2022-08-18T02:03:34.818Z,46.6
2022-08-18T02:10:01.972Z,46.6
2022-08-18T02:15:41.954Z,46.6
2022-08-18T02:21:38.141Z,46.5
2022-08-18T02:27:02.451Z,46.5
2022-08-18T02:32:45.873Z,46.5
2022-08-18T02:38:23.196Z,46.4
2022-08-18T02:43:53.515Z,46.4
2022-08-18T02:49:29.260Z,46.4
2022-08-18T02:55:06.538Z,46.4
2022-08-18T03:00:56.117Z,46.3
2022-08-18T03:06:37.222Z,46.3
2022-08-18T03:12:44.997Z,46.3
2022-08-18T03:18:33.657Z,46.3
2022-08-18T03:25:11.963Z,46.3
2022-08-18T03:31:00.396Z,46.2
2022-08-18T03:36:24.186Z,46.2
2022-08-18T03:42:29.819Z,46.1
2022-08-18T03:48:43.342Z,46.1
2022-08-18T03:54:20.310Z,46.1
2022-08-18T03:59:58.275Z,46.1
2022-08-18T04:05:42.396Z,46.1
2022-08-18T04:11:41.627Z,46
2022-08-18T04:17:21.260Z,46
2022-08-18T04:23:43.963Z,45.9
2022-08-18T04:29:26.363Z,45.9
2022-08-18T04:34:53.006Z,45.9
2022-08-18T04:40:41.100Z,45.9
2022-08-18T04:46:24.127Z,45.9
2022-08-18T04:53:25.688Z,45.9
2022-08-18T04:59:01.130Z,45.8
2022-08-18T05:04:39.727Z,45.8
2022-08-18T05:10:17.423Z,45.8
2022-08-18T05:16:25.377Z,45.8
2022-08-18T05:22:27.896Z,45.7
2022-08-18T05:28:17.860Z,45.7
2022-08-18T05:34:44.185Z,45.7
2022-08-18T05:40:28.226Z,45.6
2022-08-18T05:46:05.393Z,45.6
2022-08-18T05:51:48.209Z,45.6
2022-08-18T05:57:33.269Z,45.6
2022-08-18T06:03:12.412Z,45.6
2022-08-18T06:08:56.213Z,45.5
2022-08-18T06:14:34.712Z,45.5
2022-08-18T06:20:18.359Z,45.5
2022-08-18T06:26:03.303Z,45.4
2022-08-18T06:31:45.489Z,45.4
2022-08-18T06:37:35.072Z,45.4
2022-08-18T06:43:49.303Z,45.4
2022-08-18T06:49:38.031Z,45.3
2022-08-18T06:55:41.018Z,45.3
2022-08-18T07:01:34.460Z,45.3
2022-08-18T07:07:10.982Z,45.3
2022-08-18T07:12:49.963Z,45.3
2022-08-18T07:19:30.226Z,45.3
2022-08-18T07:25:28.482Z,45.2
2022-08-18T07:31:16.264Z,45.2
2022-08-18T07:36:53.749Z,45.1
2022-08-18T07:43:26.756Z,45.1
2022-08-18T07:49:28.115Z,45.1
2022-08-18T07:57:21.801Z,45.1
2022-08-18T08:03:44.490Z,45
2022-08-18T08:10:08.379Z,45
2022-08-18T08:16:33.115Z,45
2022-08-18T08:22:58.629Z,45
2022-08-18T08:28:55.220Z,45.1
2022-08-18T08:35:00.912Z,45.3
2022-08-18T08:41:33.193Z,45.6
2022-08-18T08:47:59.592Z,45.8
2022-08-18T08:53:46.139Z,46.1
2022-08-18T08:59:25.477Z,46.4
2022-08-18T09:05:45.213Z,46.6
2022-08-18T09:11:21.377Z,46.9
2022-08-18T09:17:04.248Z,47.2
2022-08-18T09:22:45.122Z,47.4
2022-08-18T09:28:44.134Z,47.7
2022-08-18T13:08:47.958Z,54.9
2022-08-18T13:15:55.696Z,55
2022-08-18T13:22:49.749Z,55
2022-08-18T13:29:30.623Z,55
2022-08-18T13:36:51.940Z,54.9
2022-08-18T13:43:25.840Z,54.9
2022-08-18T13:49:35.069Z,54.9
2022-08-18T13:56:03.137Z,54.9
2022-08-18T14:02:47.590Z,54.9
2022-08-18T14:09:37.959Z,54.9
2022-08-18T14:15:59.789Z,54.9
2022-08-18T14:21:39.966Z,54.8
2022-08-18T14:27:42.300Z,54.8
2022-08-18T14:34:28.586Z,54.8
2022-08-18T14:41:35.457Z,54.8
2022-08-18T14:49:04.382Z,54.7
2022-08-18T14:55:24.004Z,54.6
2022-08-18T15:01:27.404Z,54.6
2022-08-18T15:08:13.887Z,54.6
2022-08-18T15:14:32.887Z,54.6
2022-08-18T15:22:13.160Z,54.6
2022-08-18T15:28:33.141Z,54.5
2022-08-18T15:35:44.897Z,54.4
2022-08-18T15:42:20.926Z,54.4
2022-08-18T15:48:36.269Z,54.4
2022-08-18T15:55:18.723Z,54.3
2022-08-18T16:02:28.121Z,54.3
2022-08-18T16:08:47.311Z,54.3
2022-08-18T16:14:45.126Z,54.3
2022-08-18T16:20:48.365Z,54.2
2022-08-18T16:26:34.764Z,54.2
2022-08-18T16:32:16.229Z,54.1
2022-08-18T16:37:58.110Z,54.1
2022-08-18T16:43:43.652Z,54.1
2022-08-18T16:49:23.008Z,54.1
2022-08-18T16:55:18.704Z,54
2022-08-18T17:01:48.755Z,54
2022-08-18T17:07:37.137Z,53.9
2022-08-18T17:13:30.536Z,53.9
2022-08-18T17:19:10.516Z,53.9
2022-08-18T17:25:06.976Z,53.9
2022-08-18T17:31:25.124Z,53.8
2022-08-18T17:37:09.533Z,53.8
2022-08-18T17:42:46.488Z,53.8
2022-08-18T17:48:45.428Z,53.8
2022-08-18T17:54:50.206Z,53.7
2022-08-18T18:01:13.874Z,53.6
2022-08-18T18:07:05.914Z,53.6
2022-08-18T18:13:15.754Z,53.6
2022-08-18T18:18:53.435Z,53.6
2022-08-18T18:25:13.364Z,53.5
2022-08-18T18:31:01.451Z,53.5
2022-08-18T18:36:27.802Z,53.4
2022-08-18T18:42:12.741Z,53.4
2022-08-18T18:48:07.102Z,53.4
2022-08-18T18:54:24.339Z,53.4
2022-08-18T19:00:08.759Z,53.3
2022-08-18T19:06:15.470Z,53.3
2022-08-18T19:11:59.986Z,53.3
2022-08-18T19:18:23.447Z,53.2
2022-08-18T19:26:24.882Z,53.2
2022-08-18T19:32:40.180Z,53.1
2022-08-18T19:39:27.409Z,53.1
2022-08-18T19:45:31.709Z,53.1
2022-08-18T19:50:59.292Z,53
2022-08-18T19:57:02.903Z,53
2022-08-18T20:03:19.255Z,53
2022-08-18T20:09:16.213Z,52.9
2022-08-18T20:15:06.495Z,52.9
2022-08-18T20:20:57.018Z,52.9
2022-08-18T20:26:38.616Z,52.8
2022-08-18T20:32:22.766Z,52.8
2022-08-18T20:38:00.114Z,52.8
2022-08-18T20:43:56.413Z,52.8
2022-08-18T20:49:45.589Z,52.7
2022-08-18T20:56:13.113Z,52.7
2022-08-18T21:02:06.043Z,52.6
2022-08-18T21:08:09.495Z,52.6
2022-08-18T21:13:58.768Z,52.6
2022-08-18T21:19:37.512Z,52.6
2022-08-18T21:25:24.649Z,52.5
2022-08-18T21:31:28.851Z,52.4
2022-08-18T21:37:08.526Z,52.4
2022-08-18T21:53:55.517Z,52.3
2022-08-18T21:59:39.744Z,52.3
2022-08-18T22:05:17.906Z,52.3
2022-08-18T22:11:51.894Z,52.3
2022-08-18T22:17:45.680Z,52.2
2022-08-18T22:23:11.118Z,52.2
2022-08-18T22:28:49.404Z,52.1
2022-08-18T22:34:33.250Z,52.1
2022-08-18T22:40:14.667Z,52.1
2022-08-18T22:45:37.503Z,52.1
2022-08-18T22:51:23.310Z,52.1
2022-08-18T22:57:27.239Z,52
2022-08-18T23:14:27.493Z,51.9
2022-08-18T23:19:57.675Z,51.9
2022-08-18T23:26:03.914Z,51.8
2022-08-18T23:31:52.717Z,51.8
2022-08-18T23:37:36.274Z,51.8
2022-08-18T23:43:23.408Z,51.8
2022-08-18T23:49:03.850Z,51.7
2022-08-18T23:54:45.343Z,51.7
